Time;durP1;ratioP1;P1;durP2;ratioP2;P2;SDS_P1;SDS_P2;PMS_P1;PMS_P2;Temp;Humidity;BMP_temperature;BMP_pressure;BME280_temperature;BME280_humidity;BME280_pressure;Samples;Min_cycle;Max_cycle;Signal;HPM_P1;HPM_P2
2022/11/04 00:01:21;;;;;;;;;;;18.30;61.70;;;;;;5094217;28;20049;-65
2022/11/04 00:03:47;;;;;;;;;;;18.30;61.70;;;;;;5112673;28;20022;-65
2022/11/04 00:06:13;;;;;;;;;;;18.30;61.80;;;;;;5094643;28;20636;-65
2022/11/04 00:08:38;;;;;;;;;;;18.30;61.80;;;;;;5094273;28;19931;-65
2022/11/04 00:13:50;;;;;;;;;;;18.30;61.80;;;;;;5112338;28;20475;-65
2022/11/04 00:19:01;;;;;;;;;;;18.20;61.80;;;;;;5094455;28;19924;-65
2022/11/04 00:29:44;;;;;;;;;;;18.20;61.90;;;;;;5093992;28;19928;-65
2022/11/04 00:34:55;;;;;;;;;;;18.20;61.90;;;;;;5094261;28;19924;-65
2022/11/04 00:37:20;;;;;;;;;;;18.20;61.90;;;;;;5097849;28;20398;-65
2022/11/04 00:39:46;;;;;;;;;;;18.20;61.90;;;;;;5116392;28;19920;-65
2022/11/04 00:42:11;;;;;;;;;;;18.20;61.90;;;;;;5116105;28;20367;-65
2022/11/04 00:44:37;;;;;;;;;;;18.20;62.00;;;;;;5098038;28;20435;-65
2022/11/04 00:47:02;;;;;;;;;;;18.20;62.00;;;;;;5116003;28;19920;-65
2022/11/04 00:49:28;;;;;;;;;;;18.10;61.90;;;;;;5097400;28;20707;-65
2022/11/04 00:51:54;;;;;;;;;;;18.10;61.90;;;;;;5115457;28;19930;-65
2022/11/04 00:54:19;;;;;;;;;;;18.10;61.90;;;;;;5098047;28;19920;-65
2022/11/04 00:56:47;;;;;;;;;;;18.10;61.90;;;;;;5097841;28;19972;-65
2022/11/04 00:59:13;;;;;;;;;;;18.10;62.00;;;;;;5097816;28;19968;-66
2022/11/04 01:01:38;;;;;;;;;;;18.10;62.00;;;;;;5097827;28;20424;-65
2022/11/04 01:04:04;;;;;;;;;;;18.10;62.10;;;;;;5097514;28;19943;-65
2022/11/04 01:06:30;;;;;;;;;;;18.10;62.00;;;;;;5097661;28;19919;-65
2022/11/04 01:08:56;;;;;;;;;;;18.10;62.10;;;;;;5115523;28;20305;-66
2022/11/04 01:11:21;;;;;;;;;;;18.10;62.10;;;;;;5115672;28;20490;-65
2022/11/04 01:13:50;;;;;;;;;;;18.10;62.10;;;;;;5097336;28;19958;-65
2022/11/04 01:16:16;;;;;;;;;;;18.10;62.10;;;;;;5097533;28;19920;-65
2022/11/04 01:18:42;;;;;;;;;;;18.10;62.10;;;;;;5097482;28;19972;-65
2022/11/04 01:21:09;;;;;;;;;;;18.00;62.00;;;;;;5115375;28;19920;-65
2022/11/04 01:23:35;;;;;;;;;;;18.00;62.10;;;;;;5115297;28;19959;-65
2022/11/04 01:26:03;;;;;;;;;;;18.00;62.00;;;;;;5097071;28;19947;-65
2022/11/04 01:28:29;;;;;;;;;;;18.00;62.10;;;;;;5096894;28;20368;-65
2022/11/04 01:30:54;;;;;;;;;;;18.00;62.10;;;;;;5115353;28;19927;-65
2022/11/04 01:33:20;;;;;;;;;;;18.00;62.10;;;;;;5096838;28;19927;-65
2022/11/04 01:35:45;;;;;;;;;;;18.00;62.20;;;;;;5097239;28;19927;-65
2022/11/04 01:38:11;;;;;;;;;;;18.00;62.20;;;;;;5114949;28;20544;-65
2022/11/04 01:40:36;;;;;;;;;;;17.90;62.10;;;;;;5096784;28;19920;-65
2022/11/04 01:43:02;;;;;;;;;;;18.00;62.20;;;;;;5096955;28;19923;-65
2022/11/04 01:45:28;;;;;;;;;;;18.00;62.30;;;;;;5096611;28;19993;-65
2022/11/04 01:50:32;;;;;;;;;;;17.90;62.20;;;;;;5126572;27;1895794;-65
2022/11/04 01:55:39;;;;;;;;;;;17.90;62.20;;;;;;5127744;27;1860772;-65
2022/11/04 01:58:07;;;;;;;;;;;17.90;62.30;;;;;;5174768;27;19919;-65
2022/11/04 02:00:32;;;;;;;;;;;17.90;62.30;;;;;;5174711;27;20017;-65
2022/11/04 02:03:08;;;;;;;;;;;17.90;62.30;;;;;;5174398;27;20360;-65
2022/11/04 02:05:34;;;;;;;;;;;17.90;62.20;;;;;;5174417;27;19918;-65
2022/11/04 02:08:01;;;;;;;;;;;17.90;62.40;;;;;;5174535;27;20437;-66
2022/11/04 02:10:28;;;;;;;;;;;17.90;62.40;;;;;;5193117;27;20267;-65
2022/11/04 02:12:54;;;;;;;;;;;18.00;62.40;;;;;;5174579;27;19925;-65
2022/11/04 02:15:29;;;;;;;;;;;17.90;62.40;;;;;;5192911;27;19922;-65
2022/11/04 02:23:34;;;;;;;;;;;17.80;62.40;;;;;;5089987;28;19918;-65
2022/11/04 02:31:30;;;;;;;;;;;17.80;62.40;;;;;;5127948;27;1856516;-65
2022/11/04 02:34:02;;;;;;;;;;;17.80;62.50;;;;;;5174793;27;19922;-64
2022/11/04 02:36:39;;;;;;;;;;;17.80;62.40;;;;;;5174414;27;20607;-64
2022/11/04 02:41:57;;;;;;;;;;;17.80;62.50;;;;;;5089892;28;20299;-64
2022/11/04 02:44:30;;;;;;;;;;;17.80;62.50;;;;;;5088606;28;19927;-64
2022/11/04 02:47:13;;;;;;;;;;;17.80;62.50;;;;;;5105764;28;19927;-64
2022/11/04 02:49:45;;;;;;;;;;;17.80;62.60;;;;;;5088451;28;19978;-64
2022/11/04 02:52:15;;;;;;;;;;;17.80;62.60;;;;;;5088734;28;20402;-64
2022/11/04 02:54:44;;;;;;;;;;;17.70;62.50;;;;;;5088722;28;19920;-64
2022/11/04 02:57:12;;;;;;;;;;;17.70;62.60;;;;;;5088248;28;19920;-65
2022/11/04 02:59:40;;;;;;;;;;;17.70;62.60;;;;;;5088184;28;19924;-65
2022/11/04 03:02:13;;;;;;;;;;;17.70;62.60;;;;;;5088466;28;20019;-65
2022/11/04 03:04:40;;;;;;;;;;;17.70;62.60;;;;;;5088257;28;19946;-65
2022/11/04 03:07:08;;;;;;;;;;;17.70;62.60;;;;;;5089276;28;19921;-65
2022/11/04 03:09:35;;;;;;;;;;;17.70;62.70;;;;;;5088483;28;19971;-65
2022/11/04 03:12:05;;;;;;;;;;;17.70;62.70;;;;;;5089355;28;19921;-65
2022/11/04 03:14:36;;;;;;;;;;;17.70;62.70;;;;;;5089368;28;19924;-65
2022/11/04 03:17:03;;;;;;;;;;;17.70;62.70;;;;;;5088210;28;20422;-65
2022/11/04 03:19:37;;;;;;;;;;;17.70;62.70;;;;;;5089348;28;19977;-65
2022/11/04 03:24:44;;;;;;;;;;;17.70;63.00;;;;;;5089959;28;19919;-65
2022/11/04 03:29:55;;;;;;;;;;;17.80;62.80;;;;;;5129393;27;1869344;-65
2022/11/04 03:32:25;;;;;;;;;;;18.00;62.90;;;;;;5174638;27;19961;-65
2022/11/04 03:34:51;;;;;;;;;;;18.00;62.90;;;;;;5174490;27;19919;-65
2022/11/04 03:37:17;;;;;;;;;;;18.00;62.70;;;;;;5174288;27;20009;-65
2022/11/04 03:39:42;;;;;;;;;;;18.20;62.70;;;;;;5174679;27;19986;-65
2022/11/04 03:42:25;;;;;;;;;;;18.30;62.60;;;;;;5174132;27;19919;-65
2022/11/04 03:44:52;;;;;;;;;;;18.40;62.40;;;;;;5174458;27;19918;-64
2022/11/04 03:47:18;;;;;;;;;;;18.50;62.10;;;;;;5174474;27;19926;-65
2022/11/04 03:49:45;;;;;;;;;;;18.60;62.00;;;;;;5174063;27;19926;-65
2022/11/04 03:52:10;;;;;;;;;;;18.70;61.80;;;;;;5174381;27;19919;-64
2022/11/04 03:54:36;;;;;;;;;;;18.80;61.60;;;;;;5192802;27;19919;-64
2022/11/04 03:57:22;;;;;;;;;;;18.90;61.40;;;;;;5192715;27;19984;-64
2022/11/04 04:02:34;;;;;;;;;;;19.10;61.00;;;;;;5127815;27;1860183;-64
2022/11/04 04:05:02;;;;;;;;;;;19.10;60.80;;;;;;5174758;27;19970;-65
2022/11/04 04:07:33;;;;;;;;;;;19.20;60.60;;;;;;5193182;27;20312;-65
2022/11/04 04:10:37;;;;;;;;;;;19.20;60.40;;;;;;5174367;27;19926;-64
2022/11/04 04:12:50;;;;;;;;;;;19.30;60.30;;;;;;5174122;27;20404;-64
2022/11/04 04:15:18;;;;;;;;;;;19.30;60.10;;;;;;5174352;27;20405;-65
2022/11/04 04:17:49;;;;;;;;;;;19.30;60.00;;;;;;5174057;27;19926;-65
2022/11/04 04:20:17;;;;;;;;;;;19.40;59.80;;;;;;5192878;27;20370;-64
2022/11/04 04:22:46;;;;;;;;;;;19.40;59.70;;;;;;5193118;27;19918;-65
2022/11/04 04:28:00;;;;;;;;;;;19.40;59.50;;;;;;5174076;27;19925;-65
2022/11/04 04:30:25;;;;;;;;;;;19.40;59.40;;;;;;5173943;27;19922;-65
2022/11/04 04:33:00;;;;;;;;;;;19.40;59.50;;;;;;5174203;27;19926;-65
2022/11/04 04:35:42;;;;;;;;;;;19.40;59.40;;;;;;5192809;27;19923;-65
2022/11/04 04:46:45;;;;;;;;;;;19.40;59.20;;;;;;5173483;27;19919;-65
2022/11/04 04:49:11;;;;;;;;;;;19.40;59.20;;;;;;5192301;27;19966;-65
2022/11/04 04:51:39;;;;;;;;;;;19.40;59.10;;;;;;5173724;27;20412;-65
2022/11/04 04:54:05;;;;;;;;;;;19.40;59.00;;;;;;5192298;27;19922;-66
2022/11/04 04:56:30;;;;;;;;;;;19.40;59.00;;;;;;5173754;27;19922;-65
2022/11/04 04:58:56;;;;;;;;;;;19.40;58.90;;;;;;5173435;27;19925;-65
2022/11/04 05:01:21;;;;;;;;;;;19.40;58.90;;;;;;5173030;27;19923;-65
2022/11/04 05:03:47;;;;;;;;;;;19.40;58.90;;;;;;5192142;27;19925;-65
2022/11/04 05:06:12;;;;;;;;;;;19.50;59.00;;;;;;5191888;27;19930;-65
2022/11/04 05:08:38;;;;;;;;;;;19.50;58.90;;;;;;5173259;27;19970;-65
2022/11/04 05:11:03;;;;;;;;;;;19.50;58.90;;;;;;5173454;27;20025;-65
2022/11/04 05:13:29;;;;;;;;;;;19.50;58.90;;;;;;5160997;27;19919;-65
2022/11/04 05:15:56;;;;;;;;;;;19.50;58.80;;;;;;5159493;27;19982;-65
2022/11/04 05:18:21;;;;;;;;;;;19.50;58.80;;;;;;5159166;27;19919;-65
2022/11/04 05:20:47;;;;;;;;;;;19.50;58.70;;;;;;5159055;27;19923;-65
2022/11/04 05:23:13;;;;;;;;;;;19.60;58.80;;;;;;5177952;27;20294;-65
2022/11/04 05:25:40;;;;;;;;;;;19.60;58.70;;;;;;5159280;27;19919;-65
2022/11/04 05:28:05;;;;;;;;;;;19.60;58.70;;;;;;5159217;27;19919;-65
2022/11/04 05:30:31;;;;;;;;;;;19.60;58.60;;;;;;5158871;27;20392;-65
2022/11/04 05:32:57;;;;;;;;;;;19.60;58.50;;;;;;5159114;27;20017;-65
2022/11/04 05:35:22;;;;;;;;;;;19.60;58.50;;;;;;5177392;27;20413;-65
2022/11/04 05:37:48;;;;;;;;;;;19.60;58.50;;;;;;5177456;27;20275;-65
2022/11/04 05:40:14;;;;;;;;;;;19.60;58.50;;;;;;5177468;27;19926;-66
2022/11/04 05:42:39;;;;;;;;;;;19.60;58.40;;;;;;5158622;27;20378;-66
2022/11/04 05:45:05;;;;;;;;;;;19.60;58.30;;;;;;5158600;27;19925;-66
2022/11/04 05:47:30;;;;;;;;;;;19.60;58.30;;;;;;5177275;27;19923;-65
2022/11/04 05:49:56;;;;;;;;;;;19.60;58.20;;;;;;5158847;27;19926;-65
2022/11/04 05:52:21;;;;;;;;;;;19.60;58.20;;;;;;5177093;27;20374;-65
2022/11/04 05:54:47;;;;;;;;;;;19.60;58.10;;;;;;5158856;27;20470;-65
2022/11/04 05:57:13;;;;;;;;;;;19.70;58.20;;;;;;5158595;27;19963;-65
2022/11/04 05:59:38;;;;;;;;;;;19.70;58.10;;;;;;5158509;27;19977;-65
2022/11/04 06:02:04;;;;;;;;;;;19.70;58.00;;;;;;5176496;27;19929;-65
2022/11/04 06:04:29;;;;;;;;;;;19.80;58.00;;;;;;5158569;27;20063;-66
2022/11/04 06:06:55;;;;;;;;;;;19.70;57.90;;;;;;5158052;27;19919;-65
2022/11/04 06:09:37;;;;;;;;;;;19.70;57.80;;;;;;5158398;27;19919;-66
2022/11/04 06:12:04;;;;;;;;;;;19.80;57.90;;;;;;5158371;27;20022;-65
2022/11/04 06:14:30;;;;;;;;;;;19.70;57.70;;;;;;5158411;27;19923;-65
2022/11/04 06:16:55;;;;;;;;;;;19.80;57.80;;;;;;5158261;27;20028;-65
2022/11/04 06:19:21;;;;;;;;;;;19.70;57.70;;;;;;5158261;27;19925;-65
2022/11/04 06:21:46;;;;;;;;;;;19.80;57.70;;;;;;5176439;27;20267;-65
2022/11/04 06:24:12;;;;;;;;;;;19.80;57.70;;;;;;5157123;27;19919;-65
2022/11/04 06:26:38;;;;;;;;;;;19.80;57.60;;;;;;5176496;27;20409;-65
2022/11/04 06:29:03;;;;;;;;;;;19.80;57.70;;;;;;5176399;27;19934;-65
2022/11/04 06:31:29;;;;;;;;;;;19.80;57.60;;;;;;5176495;27;20018;-65
2022/11/04 06:33:55;;;;;;;;;;;19.80;57.60;;;;;;5157650;27;19919;-65
2022/11/04 06:36:20;;;;;;;;;;;19.80;57.50;;;;;;5157835;27;19928;-65
2022/11/04 06:38:46;;;;;;;;;;;19.80;57.60;;;;;;5176493;27;20319;-65
2022/11/04 06:41:12;;;;;;;;;;;19.90;57.50;;;;;;5157431;27;19923;-65
2022/11/04 06:43:38;;;;;;;;;;;19.80;57.40;;;;;;5167966;27;20513;-65
2022/11/04 06:46:04;;;;;;;;;;;19.80;57.40;;;;;;5119364;27;19923;-65
2022/11/04 06:48:29;;;;;;;;;;;19.80;57.40;;;;;;5153525;27;19919;-68
2022/11/04 06:50:57;;;;;;;;;;;19.80;57.40;;;;;;5144670;27;19919;-68
2022/11/04 06:53:22;;;;;;;;;;;19.80;57.40;;;;;;5138909;27;19918;-66
2022/11/04 06:55:48;;;;;;;;;;;19.90;57.40;;;;;;5165443;27;19926;-67
2022/11/04 06:58:13;;;;;;;;;;;19.80;57.20;;;;;;5144626;27;20522;-67
2022/11/04 07:00:39;;;;;;;;;;;19.90;57.20;;;;;;5158583;27;19930;-67
2022/11/04 07:03:04;;;;;;;;;;;19.90;57.20;;;;;;5135255;27;19922;-67
2022/11/04 07:05:31;;;;;;;;;;;19.90;57.10;;;;;;5137174;27;19946;-65
2022/11/04 07:07:57;;;;;;;;;;;19.90;57.00;;;;;;5155232;27;20034;-66
2022/11/04 07:10:22;;;;;;;;;;;19.90;57.10;;;;;;5139922;27;19954;-66
2022/11/04 07:12:48;;;;;;;;;;;19.90;57.00;;;;;;5159734;27;19933;-66
2022/11/04 07:15:13;;;;;;;;;;;19.90;57.10;;;;;;5140020;27;20409;-67
2022/11/04 07:17:39;;;;;;;;;;;20.60;57.40;;;;;;5134315;27;19923;-65
2022/11/04 07:20:05;;;;;;;;;;;19.90;56.90;;;;;;5159423;27;20297;-67
2022/11/04 07:22:30;;;;;;;;;;;19.90;57.00;;;;;;5154084;27;19930;-66
2022/11/04 07:24:56;;;;;;;;;;;19.90;57.00;;;;;;5128569;27;19919;-66
2022/11/04 07:27:21;;;;;;;;;;;20.00;56.90;;;;;;5151922;27;19927;-66
2022/11/04 07:29:47;;;;;;;;;;;20.00;57.10;;;;;;5127640;27;19925;-66
2022/11/04 07:32:12;;;;;;;;;;;20.00;57.10;;;;;;5132529;27;19970;-67
2022/11/04 07:34:38;;;;;;;;;;;20.00;57.20;;;;;;5133844;27;19931;-67
2022/11/04 07:37:03;;;;;;;;;;;20.00;57.20;;;;;;5133439;27;19926;-67
2022/11/04 07:39:29;;;;;;;;;;;20.00;57.00;;;;;;5146630;27;19927;-67
2022/11/04 07:41:54;;;;;;;;;;;20.00;56.80;;;;;;5149385;27;20341;-66
2022/11/04 07:44:22;;;;;;;;;;;20.00;56.40;;;;;;5151460;27;19927;-67
2022/11/04 07:46:47;;;;;;;;;;;20.00;56.80;;;;;;5136597;27;20506;-66
2022/11/04 07:49:13;;;;;;;;;;;20.00;56.90;;;;;;5148855;27;19923;-65
2022/11/04 07:51:38;;;;;;;;;;;20.00;56.90;;;;;;5135839;27;19970;-64
2022/11/04 07:54:04;;;;;;;;;;;20.00;57.10;;;;;;5148495;27;20007;-66
2022/11/04 07:56:29;;;;;;;;;;;20.00;57.10;;;;;;5152951;27;20454;-66
2022/11/04 07:58:55;;;;;;;;;;;20.00;57.20;;;;;;5127118;27;19923;-65
2022/11/04 08:01:22;;;;;;;;;;;20.00;57.30;;;;;;5137081;27;19937;-64
2022/11/04 08:03:48;;;;;;;;;;;20.00;57.50;;;;;;5150161;27;20660;-66
2022/11/04 08:06:15;;;;;;;;;;;20.00;57.40;;;;;;5148067;27;20505;-65
2022/11/04 08:08:42;;;;;;;;;;;20.00;57.50;;;;;;5132930;27;20014;-67
2022/11/04 08:11:10;;;;;;;;;;;20.00;57.60;;;;;;5135597;27;19927;-66
2022/11/04 08:13:36;;;;;;;;;;;20.10;57.70;;;;;;5147693;27;19968;-67
2022/11/04 08:16:02;;;;;;;;;;;20.00;57.60;;;;;;5132678;27;20385;-67
2022/11/04 08:18:29;;;;;;;;;;;20.00;57.70;;;;;;5146708;27;19927;-67
2022/11/04 08:20:54;;;;;;;;;;;20.00;57.60;;;;;;5150073;27;19923;-67
2022/11/04 08:23:20;;;;;;;;;;;20.00;57.70;;;;;;5109313;27;19927;-63
2022/11/04 08:25:45;;;;;;;;;;;20.00;57.80;;;;;;5126418;27;20374;-64
2022/11/04 08:28:16;;;;;;;;;;;20.00;57.70;;;;;;5127832;27;20371;-64
2022/11/04 08:31:01;;;;;;;;;;;20.00;57.90;;;;;;5147041;27;19926;-64
2022/11/04 08:33:27;;;;;;;;;;;20.00;57.80;;;;;;5125041;27;19926;-63
2022/11/04 08:35:54;;;;;;;;;;;20.00;57.90;;;;;;5144641;27;19933;-64
2022/11/04 08:38:20;;;;;;;;;;;20.10;57.90;;;;;;5134419;27;19919;-64
2022/11/04 08:40:45;;;;;;;;;;;20.00;57.80;;;;;;5129558;27;19927;-66
2022/11/04 08:43:11;;;;;;;;;;;20.00;57.80;;;;;;5128561;27;19923;-64
2022/11/04 08:45:37;;;;;;;;;;;20.00;57.80;;;;;;5130268;27;19958;-63
2022/11/04 08:48:03;;;;;;;;;;;20.00;57.90;;;;;;5149619;27;19922;-64
2022/11/04 08:50:29;;;;;;;;;;;20.10;58.00;;;;;;5148110;27;19923;-64
2022/11/04 08:52:55;;;;;;;;;;;20.00;58.10;;;;;;5136122;27;19945;-64
2022/11/04 08:55:20;;;;;;;;;;;20.10;58.10;;;;;;5139424;27;19927;-65
2022/11/04 08:57:46;;;;;;;;;;;20.00;58.00;;;;;;5150425;27;19923;-64
2022/11/04 09:00:12;;;;;;;;;;;20.00;58.00;;;;;;5132217;27;20301;-67
2022/11/04 09:02:39;;;;;;;;;;;20.10;58.20;;;;;;5135419;27;19933;-66
2022/11/04 09:05:04;;;;;;;;;;;20.00;58.10;;;;;;5131288;27;19972;-64
2022/11/04 09:07:30;;;;;;;;;;;20.10;58.10;;;;;;5154980;27;19935;-66
2022/11/04 09:09:55;;;;;;;;;;;20.00;58.00;;;;;;5133532;27;19923;-66
2022/11/04 09:12:21;;;;;;;;;;;20.00;58.70;;;;;;5134685;27;19919;-66
2022/11/04 09:14:46;;;;;;;;;;;20.10;58.30;;;;;;5138020;27;19926;-66
2022/11/04 09:17:12;;;;;;;;;;;20.10;58.40;;;;;;5158041;27;19919;-65
2022/11/04 09:19:37;;;;;;;;;;;20.00;58.50;;;;;;5155305;27;19927;-65
2022/11/04 09:22:03;;;;;;;;;;;20.10;58.50;;;;;;5153842;27;19923;-65
2022/11/04 09:24:29;;;;;;;;;;;20.10;58.50;;;;;;5134806;27;19923;-65
2022/11/04 09:26:54;;;;;;;;;;;20.10;58.50;;;;;;5157309;27;19923;-65
2022/11/04 09:29:20;;;;;;;;;;;20.10;58.40;;;;;;5150931;27;19931;-66
2022/11/04 09:31:45;;;;;;;;;;;20.10;58.30;;;;;;5136533;27;19918;-64
2022/11/04 09:34:11;;;;;;;;;;;20.10;58.20;;;;;;5153224;27;19938;-65
2022/11/04 09:36:36;;;;;;;;;;;20.10;58.30;;;;;;5150180;27;19927;-65
2022/11/04 09:39:02;;;;;;;;;;;20.20;58.30;;;;;;5155526;27;20638;-64
2022/11/04 09:46:48;;;;;;;;;;;20.10;58.20;;;;;;5108355;27;1865788;-64
2022/11/04 09:49:15;;;;;;;;;;;20.10;58.30;;;;;;5157167;27;20481;-64
2022/11/04 09:51:41;;;;;;;;;;;20.10;58.20;;;;;;5158639;27;20259;-65
2022/11/04 09:54:11;;;;;;;;;;;20.10;58.20;;;;;;5162033;27;19926;-64
2022/11/04 09:56:38;;;;;;;;;;;20.10;58.10;;;;;;5160358;27;19926;-64
2022/11/04 09:59:04;;;;;;;;;;;20.10;58.00;;;;;;5162384;27;19923;-64
2022/11/04 10:01:49;;;;;;;;;;;20.10;58.10;;;;;;5158497;27;19926;-64
2022/11/04 10:10:02;;;;;;;;;;;20.10;58.00;;;;;;5055444;28;19950;-64
2022/11/04 10:15:23;;;;;;;;;;;20.10;58.00;;;;;;5093379;27;1864215;-65
2022/11/04 10:17:55;;;;;;;;;;;20.10;58.20;;;;;;5117733;27;19923;-65
2022/11/04 10:20:34;;;;;;;;;;;20.10;58.30;;;;;;5118005;27;20134;-66
2022/11/04 10:23:07;;;;;;;;;;;20.10;58.20;;;;;;5112631;27;19927;-67
2022/11/04 10:28:14;;;;;;;;;;;20.10;58.70;;;;;;5072202;28;19940;-66
2022/11/04 10:30:42;;;;;;;;;;;20.10;58.40;;;;;;5073637;28;19920;-65
2022/11/04 10:33:10;;;;;;;;;;;20.10;58.50;;;;;;5066180;28;19932;-65
2022/11/04 10:35:56;;;;;;;;;;;20.10;58.50;;;;;;5066755;28;20341;-66
2022/11/04 10:38:24;;;;;;;;;;;20.10;58.60;;;;;;5066648;28;19936;-65
2022/11/04 10:40:50;;;;;;;;;;;20.10;58.50;;;;;;5067890;28;20039;-64
2022/11/04 10:43:23;;;;;;;;;;;20.10;58.60;;;;;;5068578;28;20047;-65
2022/11/04 10:46:08;;;;;;;;;;;20.20;59.10;;;;;;5066926;28;19932;-65
2022/11/04 10:48:37;;;;;;;;;;;20.10;58.80;;;;;;5068196;28;19924;-64
2022/11/04 10:51:03;;;;;;;;;;;20.20;58.70;;;;;;5072056;28;19924;-65
2022/11/04 10:53:30;;;;;;;;;;;20.10;58.70;;;;;;5073257;28;19928;-65
2022/11/04 10:58:45;;;;;;;;;;;20.20;58.70;;;;;;5070155;28;19920;-64
2022/11/04 11:04:07;;;;;;;;;;;20.10;58.60;;;;;;5074861;27;19920;-62
2022/11/04 11:06:34;;;;;;;;;;;20.20;58.70;;;;;;5108928;28;19921;-64
2022/11/04 11:09:21;;;;;;;;;;;20.20;58.70;;;;;;5072084;28;19924;-65
2022/11/04 11:11:48;;;;;;;;;;;20.20;58.90;;;;;;5072175;28;20011;-65
2022/11/04 11:14:15;;;;;;;;;;;20.10;58.80;;;;;;5078436;28;19921;-64
2022/11/04 11:16:40;;;;;;;;;;;20.20;58.80;;;;;;5080548;28;19935;-64
2022/11/04 11:19:16;;;;;;;;;;;20.20;59.10;;;;;;5067129;28;19928;-63
2022/11/04 11:21:43;;;;;;;;;;;20.20;59.40;;;;;;5070514;28;19924;-64
2022/11/04 11:24:15;;;;;;;;;;;20.20;59.40;;;;;;5068761;28;19925;-64
2022/11/04 11:26:47;;;;;;;;;;;20.10;59.40;;;;;;5107034;28;19932;-63
2022/11/04 11:29:17;;;;;;;;;;;20.20;59.30;;;;;;5073819;28;19928;-63
2022/11/04 11:31:42;;;;;;;;;;;20.20;59.30;;;;;;5069638;28;20505;-63
2022/11/04 11:34:19;;;;;;;;;;;20.20;59.10;;;;;;5073621;28;20027;-63
2022/11/04 11:36:46;;;;;;;;;;;20.20;59.10;;;;;;5072476;28;20045;-63
2022/11/04 11:39:15;;;;;;;;;;;20.20;59.00;;;;;;5071726;28;20173;-61
2022/11/04 11:44:43;;;;;;;;;;;20.20;59.00;;;;;;5072314;28;20373;-63
2022/11/04 11:50:14;;;;;;;;;;;20.20;59.20;;;;;;5046889;28;19917;-64
2022/11/04 11:52:40;;;;;;;;;;;19.90;58.90;;;;;;5037090;28;20285;-62
2022/11/04 11:55:14;;;;;;;;;;;20.20;59.00;;;;;;5031214;28;19936;-62
2022/11/04 11:57:51;;;;;;;;;;;20.20;59.00;;;;;;5037816;28;19940;-63
2022/11/04 12:00:19;;;;;;;;;;;20.20;59.00;;;;;;5031937;28;20317;-62
2022/11/04 12:05:29;;;;;;;;;;;20.20;59.10;;;;;;5089812;27;19916;-64
2022/11/04 12:08:15;;;;;;;;;;;20.20;59.10;;;;;;5071115;28;19931;-64
2022/11/04 12:10:44;;;;;;;;;;;20.20;59.80;;;;;;5074227;28;20441;-64
2022/11/04 12:13:29;;;;;;;;;;;20.20;59.10;;;;;;5083397;28;20460;-63
2022/11/04 12:18:58;;;;;;;;;;;20.20;59.10;;;;;;5067606;28;20314;-63
2022/11/04 12:21:34;;;;;;;;;;;20.30;59.30;;;;;;5072564;28;20011;-63
2022/11/04 12:27:00;;;;;;;;;;;20.30;59.30;;;;;;5066101;28;19949;-64
2022/11/04 12:37:35;;;;;;;;;;;20.30;59.40;;;;;;5081686;27;19944;-62
2022/11/04 12:40:20;;;;;;;;;;;20.40;59.30;;;;;;5068056;28;20335;-63
2022/11/04 12:48:11;;;;;;;;;;;20.30;59.40;;;;;;5115652;27;1861170;-63
2022/11/04 12:50:57;;;;;;;;;;;20.40;59.40;;;;;;5161712;27;19967;-64
2022/11/04 12:56:05;;;;;;;;;;;20.40;59.70;;;;;;5092067;27;1869755;-66
2022/11/04 12:58:51;;;;;;;;;;;20.40;59.80;;;;;;5152571;27;19979;-62
2022/11/04 13:01:21;;;;;;;;;;;20.40;60.00;;;;;;5136262;27;19967;-62
2022/11/04 13:03:52;;;;;;;;;;;20.40;60.00;;;;;;5135764;27;19923;-63
2022/11/04 13:06:20;;;;;;;;;;;20.40;59.90;;;;;;5141427;27;19958;-63
2022/11/04 13:08:49;;;;;;;;;;;20.40;59.90;;;;;;5116379;27;19988;-63
2022/11/04 13:13:58;;;;;;;;;;;20.40;59.90;;;;;;5078777;27;19953;-63
2022/11/04 13:16:24;;;;;;;;;;;20.40;59.80;;;;;;5083382;28;20257;-62
2022/11/04 13:18:50;;;;;;;;;;;20.40;59.60;;;;;;5081418;28;19924;-63
2022/11/04 13:21:20;;;;;;;;;;;20.40;59.50;;;;;;5071027;28;19968;-62
2022/11/04 13:24:05;;;;;;;;;;;20.40;59.40;;;;;;5083405;28;20632;-62
2022/11/04 13:26:31;;;;;;;;;;;20.40;59.10;;;;;;5091276;28;20066;-62
2022/11/04 13:29:00;;;;;;;;;;;20.50;59.00;;;;;;5083482;28;20071;-62
2022/11/04 13:34:41;;;;;;;;;;;20.40;59.00;;;;;;5054879;28;20372;-63
2022/11/04 13:37:10;;;;;;;;;;;20.50;59.00;;;;;;5052607;28;19956;-62
2022/11/04 13:39:40;;;;;;;;;;;20.50;59.10;;;;;;5066947;28;19925;-66
2022/11/04 13:44:51;;;;;;;;;;;20.50;59.10;;;;;;5068066;28;19924;-64
2022/11/04 13:47:19;;;;;;;;;;;20.50;58.50;;;;;;5078017;28;19978;-64
2022/11/04 13:49:49;;;;;;;;;;;20.50;58.10;;;;;;5064772;28;20296;-62
2022/11/04 13:52:15;;;;;;;;;;;20.50;58.10;;;;;;5065229;28;20280;-62
2022/11/04 13:54:51;;;;;;;;;;;20.40;57.80;;;;;;5060847;28;19925;-62
2022/11/04 14:02:48;;;;;;;;;;;20.50;57.80;;;;;;5099883;27;1866651;-62
2022/11/04 14:05:35;;;;;;;;;;;20.50;57.90;;;;;;5137551;27;19919;-62
2022/11/04 14:10:43;;;;;;;;;;;20.50;58.10;;;;;;5067184;28;19923;-64
2022/11/04 14:13:30;;;;;;;;;;;20.50;57.90;;;;;;5035731;28;19921;-65
2022/11/04 14:18:44;;;;;;;;;;;20.50;58.10;;;;;;5093808;27;20531;-67
2022/11/04 14:21:11;;;;;;;;;;;20.50;58.10;;;;;;5091785;28;20538;-65
2022/11/04 14:23:39;;;;;;;;;;;20.50;58.10;;;;;;5093900;28;19923;-64
2022/11/04 14:26:06;;;;;;;;;;;20.50;58.20;;;;;;5089163;28;19931;-65
2022/11/04 14:28:32;;;;;;;;;;;20.50;58.10;;;;;;5115017;28;19920;-65
2022/11/04 14:31:00;;;;;;;;;;;20.50;58.10;;;;;;5102996;28;19958;-70
2022/11/04 14:33:32;;;;;;;;;;;20.50;58.10;;;;;;5113213;28;20010;-66
2022/11/04 14:36:15;;;;;;;;;;;20.50;57.80;;;;;;5131042;27;20006;-65
2022/11/04 14:38:41;;;;;;;;;;;20.60;57.70;;;;;;5088909;28;19924;-67
2022/11/04 14:41:11;;;;;;;;;;;20.50;57.30;;;;;;5092811;28;19921;-68
2022/11/04 14:43:38;;;;;;;;;;;20.50;57.20;;;;;;5090752;28;19953;-69
2022/11/04 14:46:04;;;;;;;;;;;20.50;57.20;;;;;;5092752;28;19990;-68
2022/11/04 14:48:30;;;;;;;;;;;20.50;57.30;;;;;;5089052;28;20049;-70
2022/11/04 14:50:56;;;;;;;;;;;20.40;57.40;;;;;;5092645;28;19932;-67
2022/11/04 14:53:37;;;;;;;;;;;20.50;58.20;;;;;;5119583;27;19975;-66
2022/11/04 14:56:04;;;;;;;;;;;20.50;57.30;;;;;;5088104;28;20014;-67
2022/11/04 14:58:30;;;;;;;;;;;20.40;57.00;;;;;;5090829;28;19924;-66
2022/11/04 15:00:58;;;;;;;;;;;20.50;57.30;;;;;;5087607;28;20453;-67
2022/11/04 15:03:25;;;;;;;;;;;20.50;57.20;;;;;;5087865;28;20376;-69
2022/11/04 15:05:52;;;;;;;;;;;20.40;57.10;;;;;;5087842;28;19920;-67
2022/11/04 15:11:10;;;;;;;;;;;20.50;57.20;;;;;;5094530;27;1862465;-66
2022/11/04 15:13:37;;;;;;;;;;;20.50;57.30;;;;;;5136088;27;19923;-65
2022/11/04 15:16:06;;;;;;;;;;;20.50;57.30;;;;;;5137343;27;19997;-66
2022/11/04 15:18:32;;;;;;;;;;;20.40;57.30;;;;;;5133641;27;19962;-66
2022/11/04 15:20:59;;;;;;;;;;;20.50;57.40;;;;;;5145788;27;19954;-65
2022/11/04 15:23:27;;;;;;;;;;;20.40;57.40;;;;;;5128725;27;19926;-66
2022/11/04 15:25:52;;;;;;;;;;;20.40;57.50;;;;;;5128330;27;20347;-65
2022/11/04 15:28:21;;;;;;;;;;;20.40;57.50;;;;;;5110259;27;19920;-65
2022/11/04 15:31:06;;;;;;;;;;;20.40;57.60;;;;;;5145825;27;19934;-66
2022/11/04 15:33:37;;;;;;;;;;;20.40;57.60;;;;;;5148549;27;19919;-65
2022/11/04 15:36:03;;;;;;;;;;;20.30;57.60;;;;;;5149143;27;20218;-66
2022/11/04 15:38:29;;;;;;;;;;;20.30;57.70;;;;;;5167146;27;20318;-65
2022/11/04 15:42:35;;;;;;;;;;;20.30;57.70;;;;;;5148639;27;19946;-66
2022/11/04 15:43:41;;;;;;;;;;;20.30;57.70;;;;;;5148258;27;19923;-66
2022/11/04 15:46:14;;;;;;;;;;;20.30;57.80;;;;;;5149035;27;20234;-65
2022/11/04 15:48:40;;;;;;;;;;;20.30;57.90;;;;;;5148499;27;19919;-66
2022/11/04 15:53:51;;;;;;;;;;;20.20;57.90;;;;;;5085938;28;20313;-66
2022/11/04 15:56:19;;;;;;;;;;;20.20;57.90;;;;;;5084288;28;20030;-68
2022/11/04 15:58:45;;;;;;;;;;;20.20;57.90;;;;;;5083236;28;19947;-66
2022/11/04 16:01:13;;;;;;;;;;;20.10;57.90;;;;;;5083533;28;19928;-65
2022/11/04 16:03:39;;;;;;;;;;;20.10;58.00;;;;;;5083976;28;20019;-65
2022/11/04 16:06:07;;;;;;;;;;;20.10;58.00;;;;;;5081835;28;20366;-66
2022/11/04 16:08:32;;;;;;;;;;;20.10;58.10;;;;;;5083980;28;20020;-65
2022/11/04 16:11:07;;;;;;;;;;;20.10;58.10;;;;;;5083651;28;20011;-65
2022/11/04 16:13:33;;;;;;;;;;;20.00;58.10;;;;;;5084083;28;20436;-65
2022/11/04 16:18:40;;;;;;;;;;;20.00;58.20;;;;;;5085427;27;20383;-65
2022/11/04 16:23:48;;;;;;;;;;;20.00;58.20;;;;;;5106800;27;20299;-66
2022/11/04 16:26:14;;;;;;;;;;;20.00;58.20;;;;;;5106322;28;20004;-66
2022/11/04 16:28:41;;;;;;;;;;;20.00;58.30;;;;;;5089264;28;20291;-66
2022/11/04 16:31:14;;;;;;;;;;;20.00;58.30;;;;;;5089080;28;19921;-65
2022/11/04 16:33:40;;;;;;;;;;;19.90;58.20;;;;;;5090441;28;19920;-66
2022/11/04 16:36:11;;;;;;;;;;;20.00;58.30;;;;;;5093372;28;19985;-66
2022/11/04 16:38:36;;;;;;;;;;;19.90;58.30;;;;;;5107922;28;19924;-65
2022/11/04 16:41:02;;;;;;;;;;;19.90;58.30;;;;;;5088096;28;20441;-65